sensor_id;sensor_type;location;lat;lon;timestamp;temperature;humidity
16174;DHT22;14031;50.158;8.626;2023-12-29T00:00:24;9.60;99.90
16174;DHT22;14031;50.158;8.626;2023-12-29T00:02:51;9.50;99.90
16174;DHT22;14031;50.158;8.626;2023-12-29T00:05:19;9.50;99.90
16174;DHT22;14031;50.158;8.626;2023-12-29T00:07:45;9.50;99.90
16174;DHT22;14031;50.158;8.626;2023-12-29T00:10:12;9.60;99.90
16174;DHT22;14031;50.158;8.626;2023-12-29T00:12:39;9.70;99.90
16174;DHT22;14031;50.158;8.626;2023-12-29T00:15:07;9.80;99.90
16174;DHT22;14031;50.158;8.626;2023-12-29T00:17:33;9.70;99.90
16174;DHT22;14031;50.158;8.626;2023-12-29T00:20:03;9.70;99.90
16174;DHT22;14031;50.158;8.626;2023-12-29T00:22:31;9.70;99.90
16174;DHT22;14031;50.158;8.626;2023-12-29T00:24:58;9.60;99.90
16174;DHT22;14031;50.158;8.626;2023-12-29T00:27:25;9.60;99.90
16174;DHT22;14031;50.158;8.626;2023-12-29T00:29:51;9.50;99.90
16174;DHT22;14031;50.158;8.626;2023-12-29T00:32:18;9.60;99.90
16174;DHT22;14031;50.158;8.626;2023-12-29T00:34:45;9.60;99.90
16174;DHT22;14031;50.158;8.626;2023-12-29T00:37:12;9.50;99.90
16174;DHT22;14031;50.158;8.626;2023-12-29T00:39:40;9.30;99.90
16174;DHT22;14031;50.158;8.626;2023-12-29T00:42:07;9.10;99.90
16174;DHT22;14031;50.158;8.626;2023-12-29T00:44:34;9.30;99.90
16174;DHT22;14031;50.158;8.626;2023-12-29T00:47:01;9.30;99.90
16174;DHT22;14031;50.158;8.626;2023-12-29T00:49:27;9.10;99.90
16174;DHT22;14031;50.158;8.626;2023-12-29T00:51:54;9.10;99.90
16174;DHT22;14031;50.158;8.626;2023-12-29T00:54:21;9.10;99.90
16174;DHT22;14031;50.158;8.626;2023-12-29T00:56:50;9.10;99.90
16174;DHT22;14031;50.158;8.626;2023-12-29T00:59:18;9.10;99.90
16174;DHT22;14031;50.158;8.626;2023-12-29T01:01:45;9.00;99.90
16174;DHT22;14031;50.158;8.626;2023-12-29T01:04:12;9.00;99.90
16174;DHT22;14031;50.158;8.626;2023-12-29T01:06:39;9.00;99.90
16174;DHT22;14031;50.158;8.626;2023-12-29T01:09:06;9.10;99.90
16174;DHT22;14031;50.158;8.626;2023-12-29T01:11:34;9.10;99.90
16174;DHT22;14031;50.158;8.626;2023-12-29T01:14:02;9.00;99.90
16174;DHT22;14031;50.158;8.626;2023-12-29T01:16:29;9.00;99.90
16174;DHT22;14031;50.158;8.626;2023-12-29T01:18:55;9.00;99.90
16174;DHT22;14031;50.158;8.626;2023-12-29T01:21:22;9.00;99.90
16174;DHT22;14031;50.158;8.626;2023-12-29T01:23:49;8.90;99.90
16174;DHT22;14031;50.158;8.626;2023-12-29T01:26:16;8.90;99.90
16174;DHT22;14031;50.158;8.626;2023-12-29T01:28:42;8.90;99.90
16174;DHT22;14031;50.158;8.626;2023-12-29T01:31:10;8.80;99.90
16174;DHT22;14031;50.158;8.626;2023-12-29T01:33:39;8.90;99.90
16174;DHT22;14031;50.158;8.626;2023-12-29T01:36:06;8.90;99.90
16174;DHT22;14031;50.158;8.626;2023-12-29T01:38:32;8.90;99.90
16174;DHT22;14031;50.158;8.626;2023-12-29T01:40:59;9.00;99.90
16174;DHT22;14031;50.158;8.626;2023-12-29T01:43:26;9.00;99.90
16174;DHT22;14031;50.158;8.626;2023-12-29T01:45:53;9.00;99.90
16174;DHT22;14031;50.158;8.626;2023-12-29T01:48:22;9.20;99.90
16174;DHT22;14031;50.158;8.626;2023-12-29T01:50:49;9.10;99.90
16174;DHT22;14031;50.158;8.626;2023-12-29T01:53:16;9.10;99.90
16174;DHT22;14031;50.158;8.626;2023-12-29T01:55:43;9.00;99.90
16174;DHT22;14031;50.158;8.626;2023-12-29T01:58:09;9.10;99.90
16174;DHT22;14031;50.158;8.626;2023-12-29T02:00:36;9.10;99.90
16174;DHT22;14031;50.158;8.626;2023-12-29T02:03:03;9.10;99.90
16174;DHT22;14031;50.158;8.626;2023-12-29T02:05:34;9.20;99.90
16174;DHT22;14031;50.158;8.626;2023-12-29T02:08:02;9.10;99.90
16174;DHT22;14031;50.158;8.626;2023-12-29T02:10:29;9.10;99.90
16174;DHT22;14031;50.158;8.626;2023-12-29T02:12:56;9.10;99.90
16174;DHT22;14031;50.158;8.626;2023-12-29T02:15:25;9.10;99.90
16174;DHT22;14031;50.158;8.626;2023-12-29T02:17:59;9.10;99.90
16174;DHT22;14031;50.158;8.626;2023-12-29T02:20:26;9.10;99.90
16174;DHT22;14031;50.158;8.626;2023-12-29T02:22:55;9.10;99.90
16174;DHT22;14031;50.158;8.626;2023-12-29T02:25:23;9.30;99.90
16174;DHT22;14031;50.158;8.626;2023-12-29T02:27:52;9.20;99.90
16174;DHT22;14031;50.158;8.626;2023-12-29T02:30:28;9.10;99.90
16174;DHT22;14031;50.158;8.626;2023-12-29T02:33:01;9.00;99.90
16174;DHT22;14031;50.158;8.626;2023-12-29T02:35:34;9.00;99.90
16174;DHT22;14031;50.158;8.626;2023-12-29T02:38:02;8.90;99.90
16174;DHT22;14031;50.158;8.626;2023-12-29T02:40:30;8.90;99.90
16174;DHT22;14031;50.158;8.626;2023-12-29T02:42:57;8.90;99.90
16174;DHT22;14031;50.158;8.626;2023-12-29T02:45:24;8.90;99.90
16174;DHT22;14031;50.158;8.626;2023-12-29T02:47:51;8.90;99.90
16174;DHT22;14031;50.158;8.626;2023-12-29T02:50:17;8.90;99.90
16174;DHT22;14031;50.158;8.626;2023-12-29T02:52:44;8.90;99.90
16174;DHT22;14031;50.158;8.626;2023-12-29T02:55:11;8.90;99.90
16174;DHT22;14031;50.158;8.626;2023-12-29T02:57:39;8.80;99.90
16174;DHT22;14031;50.158;8.626;2023-12-29T03:00:07;8.80;99.90
16174;DHT22;14031;50.158;8.626;2023-12-29T03:02:34;8.70;99.90
16174;DHT22;14031;50.158;8.626;2023-12-29T03:05:00;8.70;99.90
16174;DHT22;14031;50.158;8.626;2023-12-29T03:07:27;8.80;99.90
16174;DHT22;14031;50.158;8.626;2023-12-29T03:09:54;8.70;99.90
16174;DHT22;14031;50.158;8.626;2023-12-29T03:12:21;8.70;99.90
16174;DHT22;14031;50.158;8.626;2023-12-29T03:14:49;8.70;99.90
16174;DHT22;14031;50.158;8.626;2023-12-29T03:17:16;8.70;99.90
16174;DHT22;14031;50.158;8.626;2023-12-29T03:19:43;8.60;99.90
16174;DHT22;14031;50.158;8.626;2023-12-29T03:22:09;8.70;99.90
16174;DHT22;14031;50.158;8.626;2023-12-29T03:24:37;8.70;99.90
16174;DHT22;14031;50.158;8.626;2023-12-29T03:27:04;8.70;99.90
16174;DHT22;14031;50.158;8.626;2023-12-29T03:29:31;8.70;99.90
16174;DHT22;14031;50.158;8.626;2023-12-29T03:31:59;8.70;99.90
16174;DHT22;14031;50.158;8.626;2023-12-29T03:34:25;8.70;99.90
16174;DHT22;14031;50.158;8.626;2023-12-29T03:36:52;8.60;99.90
16174;DHT22;14031;50.158;8.626;2023-12-29T03:39:19;8.70;99.90
16174;DHT22;14031;50.158;8.626;2023-12-29T03:41:46;8.70;99.90
16174;DHT22;14031;50.158;8.626;2023-12-29T03:44:13;8.80;99.90
16174;DHT22;14031;50.158;8.626;2023-12-29T03:46:40;8.80;99.90
16174;DHT22;14031;50.158;8.626;2023-12-29T03:49:08;8.70;99.90
16174;DHT22;14031;50.158;8.626;2023-12-29T03:51:35;8.70;99.90
16174;DHT22;14031;50.158;8.626;2023-12-29T03:54:02;8.70;99.90
16174;DHT22;14031;50.158;8.626;2023-12-29T03:56:29;8.70;99.90
16174;DHT22;14031;50.158;8.626;2023-12-29T03:58:55;8.70;99.90
16174;DHT22;14031;50.158;8.626;2023-12-29T04:01:23;8.70;99.90
16174;DHT22;14031;50.158;8.626;2023-12-29T04:03:50;8.70;99.90
16174;DHT22;14031;50.158;8.626;2023-12-29T04:06:19;8.60;99.90
16174;DHT22;14031;50.158;8.626;2023-12-29T04:08:46;8.60;99.90
16174;DHT22;14031;50.158;8.626;2023-12-29T04:11:12;8.60;99.90
16174;DHT22;14031;50.158;8.626;2023-12-29T04:13:39;8.50;99.90
16174;DHT22;14031;50.158;8.626;2023-12-29T04:16:06;8.50;99.90
16174;DHT22;14031;50.158;8.626;2023-12-29T04:18:33;8.50;99.90
16174;DHT22;14031;50.158;8.626;2023-12-29T04:20:59;8.50;99.90
16174;DHT22;14031;50.158;8.626;2023-12-29T04:23:27;8.50;99.90
16174;DHT22;14031;50.158;8.626;2023-12-29T04:25:54;8.50;99.90
16174;DHT22;14031;50.158;8.626;2023-12-29T04:28:21;8.60;99.90
16174;DHT22;14031;50.158;8.626;2023-12-29T04:30:47;8.60;99.90
16174;DHT22;14031;50.158;8.626;2023-12-29T04:33:14;8.50;99.90
16174;DHT22;14031;50.158;8.626;2023-12-29T04:35:41;8.60;99.90
16174;DHT22;14031;50.158;8.626;2023-12-29T04:38:08;8.50;99.90
16174;DHT22;14031;50.158;8.626;2023-12-29T04:40:36;8.50;99.90
16174;DHT22;14031;50.158;8.626;2023-12-29T04:43:03;8.50;99.90
16174;DHT22;14031;50.158;8.626;2023-12-29T04:45:30;8.60;99.90
16174;DHT22;14031;50.158;8.626;2023-12-29T04:47:57;8.70;99.90
16174;DHT22;14031;50.158;8.626;2023-12-29T04:50:24;8.60;99.90
16174;DHT22;14031;50.158;8.626;2023-12-29T04:52:50;8.70;99.90
16174;DHT22;14031;50.158;8.626;2023-12-29T04:55:17;8.90;99.90
16174;DHT22;14031;50.158;8.626;2023-12-29T04:57:45;9.00;99.90
16174;DHT22;14031;50.158;8.626;2023-12-29T05:00:13;9.00;99.90
16174;DHT22;14031;50.158;8.626;2023-12-29T05:02:40;9.10;99.90
16174;DHT22;14031;50.158;8.626;2023-12-29T05:05:07;9.00;99.90
16174;DHT22;14031;50.158;8.626;2023-12-29T05:07:35;9.10;99.90
16174;DHT22;14031;50.158;8.626;2023-12-29T05:10:02;9.10;99.90
16174;DHT22;14031;50.158;8.626;2023-12-29T05:12:29;9.10;99.90
16174;DHT22;14031;50.158;8.626;2023-12-29T05:14:57;9.10;99.90
16174;DHT22;14031;50.158;8.626;2023-12-29T05:17:24;9.10;99.90
16174;DHT22;14031;50.158;8.626;2023-12-29T05:19:51;9.10;99.90
16174;DHT22;14031;50.158;8.626;2023-12-29T05:22:18;9.00;99.90
16174;DHT22;14031;50.158;8.626;2023-12-29T05:24:45;8.90;99.90
16174;DHT22;14031;50.158;8.626;2023-12-29T05:27:11;9.00;99.90
16174;DHT22;14031;50.158;8.626;2023-12-29T05:29:38;8.80;99.90
16174;DHT22;14031;50.158;8.626;2023-12-29T05:32:07;8.80;99.90
16174;DHT22;14031;50.158;8.626;2023-12-29T05:34:33;8.80;99.90
16174;DHT22;14031;50.158;8.626;2023-12-29T05:37:00;8.80;99.90
16174;DHT22;14031;50.158;8.626;2023-12-29T05:39:27;8.80;99.90
16174;DHT22;14031;50.158;8.626;2023-12-29T05:41:54;8.90;99.90
16174;DHT22;14031;50.158;8.626;2023-12-29T05:44:21;8.80;99.90
16174;DHT22;14031;50.158;8.626;2023-12-29T05:46:48;8.80;99.90
16174;DHT22;14031;50.158;8.626;2023-12-29T05:49:16;8.80;99.90
16174;DHT22;14031;50.158;8.626;2023-12-29T05:51:44;8.80;99.90
16174;DHT22;14031;50.158;8.626;2023-12-29T05:54:10;8.80;99.90
16174;DHT22;14031;50.158;8.626;2023-12-29T05:56:37;8.80;99.90
16174;DHT22;14031;50.158;8.626;2023-12-29T05:59:04;8.80;99.90
16174;DHT22;14031;50.158;8.626;2023-12-29T06:01:31;8.80;99.90
16174;DHT22;14031;50.158;8.626;2023-12-29T06:03:58;8.90;99.90
16174;DHT22;14031;50.158;8.626;2023-12-29T06:06:26;9.00;99.90
16174;DHT22;14031;50.158;8.626;2023-12-29T06:08:53;9.10;99.90
16174;DHT22;14031;50.158;8.626;2023-12-29T06:11:20;9.20;99.90
16174;DHT22;14031;50.158;8.626;2023-12-29T06:13:47;9.20;99.90
16174;DHT22;14031;50.158;8.626;2023-12-29T06:16:18;9.20;99.90
16174;DHT22;14031;50.158;8.626;2023-12-29T06:18:45;9.30;99.90
16174;DHT22;14031;50.158;8.626;2023-12-29T06:21:11;9.30;99.90
16174;DHT22;14031;50.158;8.626;2023-12-29T06:23:40;9.40;99.90
16174;DHT22;14031;50.158;8.626;2023-12-29T06:26:14;9.50;99.90
16174;DHT22;14031;50.158;8.626;2023-12-29T06:28:40;9.50;99.90
16174;DHT22;14031;50.158;8.626;2023-12-29T06:31:07;9.50;99.90
16174;DHT22;14031;50.158;8.626;2023-12-29T06:33:34;9.50;99.90
16174;DHT22;14031;50.158;8.626;2023-12-29T06:36:00;9.50;99.90
16174;DHT22;14031;50.158;8.626;2023-12-29T06:38:27;9.50;99.90
16174;DHT22;14031;50.158;8.626;2023-12-29T06:40:55;9.50;99.90
16174;DHT22;14031;50.158;8.626;2023-12-29T06:43:22;9.50;99.90
16174;DHT22;14031;50.158;8.626;2023-12-29T06:45:49;9.50;99.90
16174;DHT22;14031;50.158;8.626;2023-12-29T06:48:15;9.60;99.90
16174;DHT22;14031;50.158;8.626;2023-12-29T06:50:42;9.60;99.90
16174;DHT22;14031;50.158;8.626;2023-12-29T06:53:09;9.50;99.90
16174;DHT22;14031;50.158;8.626;2023-12-29T06:55:36;9.50;99.90
16174;DHT22;14031;50.158;8.626;2023-12-29T06:58:04;9.60;99.90
16174;DHT22;14031;50.158;8.626;2023-12-29T07:00:31;9.60;99.90
16174;DHT22;14031;50.158;8.626;2023-12-29T07:02:59;9.60;99.90
16174;DHT22;14031;50.158;8.626;2023-12-29T07:05:26;9.60;99.90
16174;DHT22;14031;50.158;8.626;2023-12-29T07:07:53;9.60;99.90
16174;DHT22;14031;50.158;8.626;2023-12-29T07:10:20;9.60;99.90
16174;DHT22;14031;50.158;8.626;2023-12-29T07:12:47;9.60;99.90
16174;DHT22;14031;50.158;8.626;2023-12-29T07:15:15;9.70;99.90
16174;DHT22;14031;50.158;8.626;2023-12-29T07:17:42;9.70;99.90
16174;DHT22;14031;50.158;8.626;2023-12-29T07:20:09;9.70;99.90
16174;DHT22;14031;50.158;8.626;2023-12-29T07:22:36;9.70;99.90
16174;DHT22;14031;50.158;8.626;2023-12-29T07:25:04;9.70;99.90
16174;DHT22;14031;50.158;8.626;2023-12-29T07:27:31;9.80;99.90
16174;DHT22;14031;50.158;8.626;2023-12-29T07:29:57;9.80;99.90
16174;DHT22;14031;50.158;8.626;2023-12-29T07:32:26;9.80;99.90
16174;DHT22;14031;50.158;8.626;2023-12-29T07:34:52;9.80;99.90
16174;DHT22;14031;50.158;8.626;2023-12-29T07:37:19;9.80;99.90
16174;DHT22;14031;50.158;8.626;2023-12-29T07:39:46;9.80;99.90
16174;DHT22;14031;50.158;8.626;2023-12-29T07:42:13;9.90;99.90
16174;DHT22;14031;50.158;8.626;2023-12-29T07:44:42;9.90;99.90
16174;DHT22;14031;50.158;8.626;2023-12-29T07:47:09;10.00;99.90
16174;DHT22;14031;50.158;8.626;2023-12-29T07:49:38;10.00;99.90
16174;DHT22;14031;50.158;8.626;2023-12-29T07:52:07;10.00;99.90
16174;DHT22;14031;50.158;8.626;2023-12-29T07:54:33;10.10;99.90
16174;DHT22;14031;50.158;8.626;2023-12-29T07:57:00;10.10;99.90
16174;DHT22;14031;50.158;8.626;2023-12-29T07:59:28;10.30;99.90
16174;DHT22;14031;50.158;8.626;2023-12-29T08:01:54;10.20;99.90
16174;DHT22;14031;50.158;8.626;2023-12-29T08:04:23;10.10;99.90
16174;DHT22;14031;50.158;8.626;2023-12-29T08:06:51;10.20;99.90
16174;DHT22;14031;50.158;8.626;2023-12-29T08:09:18;10.30;99.90
16174;DHT22;14031;50.158;8.626;2023-12-29T08:11:45;10.30;99.90
16174;DHT22;14031;50.158;8.626;2023-12-29T08:14:12;10.30;99.90
16174;DHT22;14031;50.158;8.626;2023-12-29T08:16:39;10.40;99.90
16174;DHT22;14031;50.158;8.626;2023-12-29T08:19:06;10.30;99.90
16174;DHT22;14031;50.158;8.626;2023-12-29T08:21:33;10.40;99.90
16174;DHT22;14031;50.158;8.626;2023-12-29T08:24:01;10.40;99.90
16174;DHT22;14031;50.158;8.626;2023-12-29T08:26:28;10.40;99.90
16174;DHT22;14031;50.158;8.626;2023-12-29T08:28:55;10.40;99.90
16174;DHT22;14031;50.158;8.626;2023-12-29T08:31:21;10.50;99.90
16174;DHT22;14031;50.158;8.626;2023-12-29T08:33:48;10.50;99.90
16174;DHT22;14031;50.158;8.626;2023-12-29T08:36:18;10.50;99.90
16174;DHT22;14031;50.158;8.626;2023-12-29T08:38:45;10.50;99.90
16174;DHT22;14031;50.158;8.626;2023-12-29T08:41:15;10.50;99.90
16174;DHT22;14031;50.158;8.626;2023-12-29T08:43:41;10.50;99.90
16174;DHT22;14031;50.158;8.626;2023-12-29T08:46:08;10.60;99.90
16174;DHT22;14031;50.158;8.626;2023-12-29T08:48:35;10.60;99.90
16174;DHT22;14031;50.158;8.626;2023-12-29T08:51:02;10.60;99.90
16174;DHT22;14031;50.158;8.626;2023-12-29T08:53:28;10.60;99.90
16174;DHT22;14031;50.158;8.626;2023-12-29T08:55:56;10.70;99.90
16174;DHT22;14031;50.158;8.626;2023-12-29T08:58:24;10.70;99.90
16174;DHT22;14031;50.158;8.626;2023-12-29T09:00:51;10.70;99.90
16174;DHT22;14031;50.158;8.626;2023-12-29T09:03:18;10.80;99.90
16174;DHT22;14031;50.158;8.626;2023-12-29T09:05:45;10.90;99.90
16174;DHT22;14031;50.158;8.626;2023-12-29T09:08:11;10.90;99.90
16174;DHT22;14031;50.158;8.626;2023-12-29T09:10:38;10.90;99.90
16174;DHT22;14031;50.158;8.626;2023-12-29T09:13:05;10.90;99.90
16174;DHT22;14031;50.158;8.626;2023-12-29T09:15:33;11.00;99.90
16174;DHT22;14031;50.158;8.626;2023-12-29T09:18:01;11.00;99.90
16174;DHT22;14031;50.158;8.626;2023-12-29T09:20:27;11.00;99.90
16174;DHT22;14031;50.158;8.626;2023-12-29T09:22:54;10.90;99.90
16174;DHT22;14031;50.158;8.626;2023-12-29T09:25:21;10.90;99.90
16174;DHT22;14031;50.158;8.626;2023-12-29T09:27:48;10.90;99.90
16174;DHT22;14031;50.158;8.626;2023-12-29T09:30:15;10.90;99.90
16174;DHT22;14031;50.158;8.626;2023-12-29T09:32:43;10.90;99.90
16174;DHT22;14031;50.158;8.626;2023-12-29T09:35:10;10.90;99.90
16174;DHT22;14031;50.158;8.626;2023-12-29T09:37:36;10.90;99.90
16174;DHT22;14031;50.158;8.626;2023-12-29T09:40:04;10.80;99.90
16174;DHT22;14031;50.158;8.626;2023-12-29T09:42:31;10.80;99.90
16174;DHT22;14031;50.158;8.626;2023-12-29T09:45:02;10.90;99.90
16174;DHT22;14031;50.158;8.626;2023-12-29T09:47:32;10.90;99.90
16174;DHT22;14031;50.158;8.626;2023-12-29T09:50:02;10.90;99.90
16174;DHT22;14031;50.158;8.626;2023-12-29T09:52:30;11.00;99.90
16174;DHT22;14031;50.158;8.626;2023-12-29T09:54:57;11.00;99.90
16174;DHT22;14031;50.158;8.626;2023-12-29T09:57:24;11.00;99.90
16174;DHT22;14031;50.158;8.626;2023-12-29T09:59:52;11.00;99.90
16174;DHT22;14031;50.158;8.626;2023-12-29T10:02:20;11.00;99.90
16174;DHT22;14031;50.158;8.626;2023-12-29T10:04:47;11.00;99.90
16174;DHT22;14031;50.158;8.626;2023-12-29T10:07:22;11.00;99.90
16174;DHT22;14031;50.158;8.626;2023-12-29T10:09:52;11.00;99.90
16174;DHT22;14031;50.158;8.626;2023-12-29T10:12:20;11.00;99.90
16174;DHT22;14031;50.158;8.626;2023-12-29T10:14:51;10.90;99.90
16174;DHT22;14031;50.158;8.626;2023-12-29T10:17:27;11.00;99.90
16174;DHT22;14031;50.158;8.626;2023-12-29T10:20:01;11.00;99.90
16174;DHT22;14031;50.158;8.626;2023-12-29T10:22:39;11.00;99.90
16174;DHT22;14031;50.158;8.626;2023-12-29T10:25:08;11.00;99.90
16174;DHT22;14031;50.158;8.626;2023-12-29T10:27:35;11.10;99.90
16174;DHT22;14031;50.158;8.626;2023-12-29T10:30:02;11.00;99.90
16174;DHT22;14031;50.158;8.626;2023-12-29T10:32:29;11.00;99.90
16174;DHT22;14031;50.158;8.626;2023-12-29T10:35:07;11.00;99.90
16174;DHT22;14031;50.158;8.626;2023-12-29T10:37:37;11.10;99.90
16174;DHT22;14031;50.158;8.626;2023-12-29T10:40:05;11.10;99.90
16174;DHT22;14031;50.158;8.626;2023-12-29T10:42:32;11.10;99.90
16174;DHT22;14031;50.158;8.626;2023-12-29T10:45:07;11.10;99.90
16174;DHT22;14031;50.158;8.626;2023-12-29T10:47:34;11.10;99.90
16174;DHT22;14031;50.158;8.626;2023-12-29T10:50:02;11.00;99.90
16174;DHT22;14031;50.158;8.626;2023-12-29T10:52:31;11.10;99.90
16174;DHT22;14031;50.158;8.626;2023-12-29T10:55:06;11.20;99.90
16174;DHT22;14031;50.158;8.626;2023-12-29T10:57:34;11.20;99.90
16174;DHT22;14031;50.158;8.626;2023-12-29T11:00:00;11.20;99.90
16174;DHT22;14031;50.158;8.626;2023-12-29T11:02:27;11.30;99.90
16174;DHT22;14031;50.158;8.626;2023-12-29T11:05:01;11.30;99.90
16174;DHT22;14031;50.158;8.626;2023-12-29T11:07:36;11.30;99.90
16174;DHT22;14031;50.158;8.626;2023-12-29T11:10:06;11.30;99.90
16174;DHT22;14031;50.158;8.626;2023-12-29T11:12:34;11.30;99.90
16174;DHT22;14031;50.158;8.626;2023-12-29T11:15:03;11.40;99.90
16174;DHT22;14031;50.158;8.626;2023-12-29T11:17:31;11.40;99.90
16174;DHT22;14031;50.158;8.626;2023-12-29T11:19:59;11.40;99.90
16174;DHT22;14031;50.158;8.626;2023-12-29T11:22:28;11.50;99.90
16174;DHT22;14031;50.158;8.626;2023-12-29T11:24:55;11.50;99.90
16174;DHT22;14031;50.158;8.626;2023-12-29T11:27:27;11.40;99.90
16174;DHT22;14031;50.158;8.626;2023-12-29T11:29:55;11.50;99.90
16174;DHT22;14031;50.158;8.626;2023-12-29T11:32:27;11.40;99.90
16174;DHT22;14031;50.158;8.626;2023-12-29T11:35:04;11.40;99.90
16174;DHT22;14031;50.158;8.626;2023-12-29T11:37:40;11.30;99.90
16174;DHT22;14031;50.158;8.626;2023-12-29T11:40:18;11.50;99.90
16174;DHT22;14031;50.158;8.626;2023-12-29T11:42:49;11.40;99.90
16174;DHT22;14031;50.158;8.626;2023-12-29T11:45:26;11.40;99.90
16174;DHT22;14031;50.158;8.626;2023-12-29T11:47:54;11.40;99.90
16174;DHT22;14031;50.158;8.626;2023-12-29T11:50:29;11.40;99.90
16174;DHT22;14031;50.158;8.626;2023-12-29T11:52:56;11.50;99.90
16174;DHT22;14031;50.158;8.626;2023-12-29T11:55:28;11.50;99.90
16174;DHT22;14031;50.158;8.626;2023-12-29T11:57:57;11.50;99.90
16174;DHT22;14031;50.158;8.626;2023-12-29T12:00:41;11.50;99.90
16174;DHT22;14031;50.158;8.626;2023-12-29T12:03:16;11.50;99.90
16174;DHT22;14031;50.158;8.626;2023-12-29T12:05:45;11.50;99.90
16174;DHT22;14031;50.158;8.626;2023-12-29T12:08:26;11.60;99.90
16174;DHT22;14031;50.158;8.626;2023-12-29T12:10:54;11.70;99.90
16174;DHT22;14031;50.158;8.626;2023-12-29T12:13:43;11.70;99.90
16174;DHT22;14031;50.158;8.626;2023-12-29T12:16:10;11.70;99.90
16174;DHT22;14031;50.158;8.626;2023-12-29T12:18:57;11.80;99.90
16174;DHT22;14031;50.158;8.626;2023-12-29T12:21:24;11.70;99.90
16174;DHT22;14031;50.158;8.626;2023-12-29T12:23:53;11.70;99.90
16174;DHT22;14031;50.158;8.626;2023-12-29T12:26:23;11.70;99.90
16174;DHT22;14031;50.158;8.626;2023-12-29T12:28:53;11.70;99.90
16174;DHT22;14031;50.158;8.626;2023-12-29T12:31:20;11.90;99.90
16174;DHT22;14031;50.158;8.626;2023-12-29T12:33:53;12.00;99.90
16174;DHT22;14031;50.158;8.626;2023-12-29T12:36:20;12.10;99.90
16174;DHT22;14031;50.158;8.626;2023-12-29T12:38:50;12.10;99.90
16174;DHT22;14031;50.158;8.626;2023-12-29T12:41:18;12.20;99.90
16174;DHT22;14031;50.158;8.626;2023-12-29T12:43:50;12.20;99.90
16174;DHT22;14031;50.158;8.626;2023-12-29T12:46:22;12.20;99.90
16174;DHT22;14031;50.158;8.626;2023-12-29T12:48:49;12.20;99.90
16174;DHT22;14031;50.158;8.626;2023-12-29T12:51:19;12.20;99.90
16174;DHT22;14031;50.158;8.626;2023-12-29T12:53:47;12.30;99.90
16174;DHT22;14031;50.158;8.626;2023-12-29T12:56:15;12.40;99.90
16174;DHT22;14031;50.158;8.626;2023-12-29T12:58:42;12.50;99.90
16174;DHT22;14031;50.158;8.626;2023-12-29T13:01:09;12.50;99.90
16174;DHT22;14031;50.158;8.626;2023-12-29T13:03:38;12.40;99.90
16174;DHT22;14031;50.158;8.626;2023-12-29T13:06:06;12.40;99.90
16174;DHT22;14031;50.158;8.626;2023-12-29T13:08:33;12.30;99.90
16174;DHT22;14031;50.158;8.626;2023-12-29T13:11:01;12.20;99.90
16174;DHT22;14031;50.158;8.626;2023-12-29T13:13:36;12.10;99.90
16174;DHT22;14031;50.158;8.626;2023-12-29T13:16:03;12.10;99.90
16174;DHT22;14031;50.158;8.626;2023-12-29T13:18:31;12.10;99.90
16174;DHT22;14031;50.158;8.626;2023-12-29T13:21:00;12.10;99.90
16174;DHT22;14031;50.158;8.626;2023-12-29T13:23:28;12.10;99.90
16174;DHT22;14031;50.158;8.626;2023-12-29T13:25:58;12.00;99.90
16174;DHT22;14031;50.158;8.626;2023-12-29T13:28:26;12.20;99.90
16174;DHT22;14031;50.158;8.626;2023-12-29T13:30:53;12.10;99.90
16174;DHT22;14031;50.158;8.626;2023-12-29T13:33:27;12.10;99.90
16174;DHT22;14031;50.158;8.626;2023-12-29T13:35:57;12.00;99.90
16174;DHT22;14031;50.158;8.626;2023-12-29T13:38:33;12.00;99.90
16174;DHT22;14031;50.158;8.626;2023-12-29T13:41:05;11.90;99.90
16174;DHT22;14031;50.158;8.626;2023-12-29T13:43:33;11.90;99.90
16174;DHT22;14031;50.158;8.626;2023-12-29T13:46:02;11.80;99.90
16174;DHT22;14031;50.158;8.626;2023-12-29T13:48:30;11.80;99.90
16174;DHT22;14031;50.158;8.626;2023-12-29T13:50:58;11.80;99.90
16174;DHT22;14031;50.158;8.626;2023-12-29T13:53:27;11.80;99.90
16174;DHT22;14031;50.158;8.626;2023-12-29T13:56:06;11.80;99.90
16174;DHT22;14031;50.158;8.626;2023-12-29T13:58:33;11.70;99.90
16174;DHT22;14031;50.158;8.626;2023-12-29T14:01:00;11.70;99.90
16174;DHT22;14031;50.158;8.626;2023-12-29T14:03:31;11.70;99.90
16174;DHT22;14031;50.158;8.626;2023-12-29T14:06:00;11.70;99.90
16174;DHT22;14031;50.158;8.626;2023-12-29T14:08:33;11.70;99.90
16174;DHT22;14031;50.158;8.626;2023-12-29T14:11:00;11.60;99.90
16174;DHT22;14031;50.158;8.626;2023-12-29T14:13:28;11.60;99.90
16174;DHT22;14031;50.158;8.626;2023-12-29T14:15:58;11.70;99.90
16174;DHT22;14031;50.158;8.626;2023-12-29T14:18:46;11.50;99.90
16174;DHT22;14031;50.158;8.626;2023-12-29T14:21:27;11.60;99.90
16174;DHT22;14031;50.158;8.626;2023-12-29T14:24:08;11.70;99.90
16174;DHT22;14031;50.158;8.626;2023-12-29T14:26:35;11.70;99.90
16174;DHT22;14031;50.158;8.626;2023-12-29T14:29:03;11.70;99.90
16174;DHT22;14031;50.158;8.626;2023-12-29T14:31:32;11.70;99.90
16174;DHT22;14031;50.158;8.626;2023-12-29T14:34:01;11.70;99.90
16174;DHT22;14031;50.158;8.626;2023-12-29T14:36:28;11.60;99.90
16174;DHT22;14031;50.158;8.626;2023-12-29T14:38:55;11.70;99.90
16174;DHT22;14031;50.158;8.626;2023-12-29T14:41:23;11.60;99.90
16174;DHT22;14031;50.158;8.626;2023-12-29T14:43:50;11.70;99.90
16174;DHT22;14031;50.158;8.626;2023-12-29T14:46:17;11.60;99.90
16174;DHT22;14031;50.158;8.626;2023-12-29T14:48:44;11.60;99.90
16174;DHT22;14031;50.158;8.626;2023-12-29T14:51:11;11.60;99.90
16174;DHT22;14031;50.158;8.626;2023-12-29T14:53:37;11.60;99.90
16174;DHT22;14031;50.158;8.626;2023-12-29T14:56:05;11.60;99.90
16174;DHT22;14031;50.158;8.626;2023-12-29T14:58:33;11.60;99.90
16174;DHT22;14031;50.158;8.626;2023-12-29T15:01:02;11.60;99.90
16174;DHT22;14031;50.158;8.626;2023-12-29T15:03:29;11.50;99.90
16174;DHT22;14031;50.158;8.626;2023-12-29T15:05:56;11.60;99.90
16174;DHT22;14031;50.158;8.626;2023-12-29T15:08:23;11.50;99.90
16174;DHT22;14031;50.158;8.626;2023-12-29T15:10:50;11.50;99.90
16174;DHT22;14031;50.158;8.626;2023-12-29T15:13:17;11.50;99.90
16174;DHT22;14031;50.158;8.626;2023-12-29T15:15:45;11.50;99.90
16174;DHT22;14031;50.158;8.626;2023-12-29T15:18:12;11.50;99.90
16174;DHT22;14031;50.158;8.626;2023-12-29T15:20:39;11.40;99.90
16174;DHT22;14031;50.158;8.626;2023-12-29T15:23:06;11.50;99.90
16174;DHT22;14031;50.158;8.626;2023-12-29T15:25:33;11.40;99.90
16174;DHT22;14031;50.158;8.626;2023-12-29T15:28:00;11.40;99.90
16174;DHT22;14031;50.158;8.626;2023-12-29T15:30:26;11.40;99.90
16174;DHT22;14031;50.158;8.626;2023-12-29T15:32:55;11.40;99.90
16174;DHT22;14031;50.158;8.626;2023-12-29T15:35:21;11.30;99.90
16174;DHT22;14031;50.158;8.626;2023-12-29T15:37:48;11.30;99.90
16174;DHT22;14031;50.158;8.626;2023-12-29T15:40:15;11.30;99.90
16174;DHT22;14031;50.158;8.626;2023-12-29T15:42:42;11.40;99.90